sensor_id;sensor_type;location;lat;lon;timestamp;P1;durP1;ratioP1;P2;durP2;ratioP2
1887;SDS011;944;51.574;6.980;2023-04-03T09:12:20;4.83;;;2.37;;
1887;SDS011;944;51.574;6.980;2023-04-03T09:18:27;6.50;;;2.17;;
1887;SDS011;944;51.574;6.980;2023-04-03T09:47:48;4.80;;;2.00;;
1887;SDS011;944;51.574;6.980;2023-04-03T11:29:36;3.73;;;1.80;;
1887;SDS011;944;51.574;6.980;2023-04-03T11:40:59;2.50;;;1.63;;
1887;SDS011;944;51.574;6.980;2023-04-03T11:51:46;3.80;;;2.17;;
1887;SDS011;944;51.574;6.980;2023-04-03T11:54:50;5.17;;;2.00;;
1887;SDS011;944;51.574;6.980;2023-04-03T12:11:53;3.77;;;1.90;;
1887;SDS011;944;51.574;6.980;2023-04-03T12:15:16;2.40;;;1.70;;
1887;SDS011;944;51.574;6.980;2023-04-03T12:28:50;1.70;;;1.60;;
1887;SDS011;944;51.574;6.980;2023-04-03T12:32:06;3.53;;;1.90;;
1887;SDS011;944;51.574;6.980;2023-04-03T12:34:55;2.20;;;1.93;;
1887;SDS011;944;51.574;6.980;2023-04-03T12:41:35;2.40;;;1.93;;
1887;SDS011;944;51.574;6.980;2023-04-03T12:44:11;2.70;;;1.70;;
1887;SDS011;944;51.574;6.980;2023-04-03T13:17:00;2.83;;;1.70;;
1887;SDS011;944;51.574;6.980;2023-04-03T13:20:10;7.43;;;2.47;;
1887;SDS011;944;51.574;6.980;2023-04-03T14:19:16;4.33;;;1.70;;
1887;SDS011;944;51.574;6.980;2023-04-03T15:07:26;2.50;;;1.50;;
1887;SDS011;944;51.574;6.980;2023-04-03T16:04:45;5.47;;;1.90;;
1887;SDS011;944;51.574;6.980;2023-04-03T16:07:18;5.47;;;2.17;;
1887;SDS011;944;51.574;6.980;2023-04-03T16:09:45;4.40;;;1.90;;
1887;SDS011;944;51.574;6.980;2023-04-03T16:12:13;3.80;;;2.30;;
1887;SDS011;944;51.574;6.980;2023-04-03T16:14:40;4.43;;;2.30;;
1887;SDS011;944;51.574;6.980;2023-04-03T16:23:42;5.17;;;2.10;;
1887;SDS011;944;51.574;6.980;2023-04-03T16:26:09;9.70;;;3.20;;
1887;SDS011;944;51.574;6.980;2023-04-03T16:28:36;4.27;;;2.13;;
1887;SDS011;944;51.574;6.980;2023-04-03T16:31:06;2.20;;;1.73;;
1887;SDS011;944;51.574;6.980;2023-04-03T16:33:38;6.07;;;2.20;;
1887;SDS011;944;51.574;6.980;2023-04-03T16:36:06;4.63;;;1.90;;
1887;SDS011;944;51.574;6.980;2023-04-03T16:38:33;3.10;;;1.80;;
1887;SDS011;944;51.574;6.980;2023-04-03T16:41:03;3.13;;;2.13;;
1887;SDS011;944;51.574;6.980;2023-04-03T16:43:30;7.37;;;2.20;;
1887;SDS011;944;51.574;6.980;2023-04-03T16:45:58;3.17;;;1.90;;
1887;SDS011;944;51.574;6.980;2023-04-03T16:48:27;4.63;;;2.03;;
1887;SDS011;944;51.574;6.980;2023-04-03T16:50:54;4.40;;;2.13;;
1887;SDS011;944;51.574;6.980;2023-04-03T16:53:24;2.87;;;1.97;;
1887;SDS011;944;51.574;6.980;2023-04-03T16:55:53;4.20;;;2.27;;
1887;SDS011;944;51.574;6.980;2023-04-03T16:58:25;4.80;;;2.30;;
1887;SDS011;944;51.574;6.980;2023-04-03T17:00:53;2.70;;;1.93;;
1887;SDS011;944;51.574;6.980;2023-04-03T17:03:21;4.40;;;1.93;;
1887;SDS011;944;51.574;6.980;2023-04-03T17:05:54;4.37;;;2.00;;
1887;SDS011;944;51.574;6.980;2023-04-03T17:08:34;6.60;;;2.77;;
1887;SDS011;944;51.574;6.980;2023-04-03T17:11:02;5.77;;;2.40;;
1887;SDS011;944;51.574;6.980;2023-04-03T17:13:32;3.20;;;2.07;;
1887;SDS011;944;51.574;6.980;2023-04-03T17:16:00;4.47;;;2.10;;
1887;SDS011;944;51.574;6.980;2023-04-03T17:18:48;4.40;;;2.13;;
1887;SDS011;944;51.574;6.980;2023-04-03T17:21:44;3.90;;;2.07;;
1887;SDS011;944;51.574;6.980;2023-04-03T17:24:21;4.03;;;1.70;;
1887;SDS011;944;51.574;6.980;2023-04-03T17:26:50;4.50;;;2.00;;
1887;SDS011;944;51.574;6.980;2023-04-03T17:29:33;4.33;;;2.40;;
1887;SDS011;944;51.574;6.980;2023-04-03T17:32:02;5.50;;;2.30;;
1887;SDS011;944;51.574;6.980;2023-04-03T17:35:08;6.17;;;2.40;;
1887;SDS011;944;51.574;6.980;2023-04-03T17:37:56;12.70;;;2.20;;
1887;SDS011;944;51.574;6.980;2023-04-03T17:40:39;4.43;;;2.57;;
1887;SDS011;944;51.574;6.980;2023-04-03T17:44:31;2.87;;;2.30;;
1887;SDS011;944;51.574;6.980;2023-04-03T17:56:32;2.53;;;1.60;;
1887;SDS011;944;51.574;6.980;2023-04-03T17:59:12;3.97;;;2.33;;
1887;SDS011;944;51.574;6.980;2023-04-03T18:02:07;3.30;;;2.10;;
1887;SDS011;944;51.574;6.980;2023-04-03T18:04:34;4.10;;;2.10;;
1887;SDS011;944;51.574;6.980;2023-04-03T18:07:14;4.13;;;2.00;;
1887;SDS011;944;51.574;6.980;2023-04-03T18:09:47;5.13;;;2.40;;
1887;SDS011;944;51.574;6.980;2023-04-03T18:12:32;9.63;;;2.20;;
1887;SDS011;944;51.574;6.980;2023-04-03T18:15:04;3.57;;;2.13;;
1887;SDS011;944;51.574;6.980;2023-04-03T18:17:36;3.33;;;2.63;;
1887;SDS011;944;51.574;6.980;2023-04-03T18:20:03;4.90;;;2.40;;
1887;SDS011;944;51.574;6.980;2023-04-03T18:22:41;4.97;;;2.60;;
1887;SDS011;944;51.574;6.980;2023-04-03T18:25:28;4.20;;;2.40;;
1887;SDS011;944;51.574;6.980;2023-04-03T18:28:03;4.03;;;1.70;;
1887;SDS011;944;51.574;6.980;2023-04-03T18:30:37;6.00;;;2.10;;
1887;SDS011;944;51.574;6.980;2023-04-03T18:33:20;3.70;;;2.03;;
1887;SDS011;944;51.574;6.980;2023-04-03T18:35:48;3.27;;;2.27;;
1887;SDS011;944;51.574;6.980;2023-04-03T18:38:20;5.07;;;2.57;;
1887;SDS011;944;51.574;6.980;2023-04-03T18:40:50;4.97;;;2.27;;
1887;SDS011;944;51.574;6.980;2023-04-03T18:43:29;8.00;;;2.57;;
1887;SDS011;944;51.574;6.980;2023-04-03T18:46:14;8.40;;;2.17;;
1887;SDS011;944;51.574;6.980;2023-04-03T18:48:53;5.10;;;2.27;;
1887;SDS011;944;51.574;6.980;2023-04-03T18:51:40;7.97;;;2.67;;
1887;SDS011;944;51.574;6.980;2023-04-03T18:54:22;2.87;;;2.13;;
1887;SDS011;944;51.574;6.980;2023-04-03T18:57:07;4.73;;;2.43;;
1887;SDS011;944;51.574;6.980;2023-04-03T18:59:53;7.33;;;2.50;;
1887;SDS011;944;51.574;6.980;2023-04-03T19:02:50;5.77;;;2.30;;
1887;SDS011;944;51.574;6.980;2023-04-03T19:05:20;4.47;;;1.93;;
1887;SDS011;944;51.574;6.980;2023-04-03T19:07:51;5.50;;;2.20;;
1887;SDS011;944;51.574;6.980;2023-04-03T19:10:21;5.97;;;2.57;;
1887;SDS011;944;51.574;6.980;2023-04-03T19:12:51;7.23;;;2.53;;
1887;SDS011;944;51.574;6.980;2023-04-03T19:15:21;4.53;;;2.63;;
1887;SDS011;944;51.574;6.980;2023-04-03T20:02:56;6.83;;;2.37;;
1887;SDS011;944;51.574;6.980;2023-04-03T20:05:44;4.03;;;2.60;;
1887;SDS011;944;51.574;6.980;2023-04-03T20:09:02;4.73;;;2.23;;
1887;SDS011;944;51.574;6.980;2023-04-03T20:11:55;4.07;;;2.80;;
1887;SDS011;944;51.574;6.980;2023-04-03T20:18:18;6.93;;;3.43;;
1887;SDS011;944;51.574;6.980;2023-04-03T20:21:13;6.80;;;3.07;;
1887;SDS011;944;51.574;6.980;2023-04-03T20:24:06;4.83;;;2.80;;
1887;SDS011;944;51.574;6.980;2023-04-03T20:26:56;8.07;;;2.77;;
1887;SDS011;944;51.574;6.980;2023-04-03T20:29:52;7.00;;;3.37;;
1887;SDS011;944;51.574;6.980;2023-04-03T20:32:23;5.13;;;2.67;;
1887;SDS011;944;51.574;6.980;2023-04-03T20:35:07;9.40;;;3.10;;
1887;SDS011;944;51.574;6.980;2023-04-03T20:37:37;4.90;;;2.90;;
1887;SDS011;944;51.574;6.980;2023-04-03T20:55:41;6.27;;;3.10;;
1887;SDS011;944;51.574;6.980;2023-04-03T20:58:08;6.27;;;2.90;;
1887;SDS011;944;51.574;6.980;2023-04-03T21:00:38;4.33;;;3.13;;
1887;SDS011;944;51.574;6.980;2023-04-03T22:50:15;9.87;;;3.77;;
1887;SDS011;944;51.574;6.980;2023-04-03T22:53:21;9.60;;;3.73;;
1887;SDS011;944;51.574;6.980;2023-04-03T22:56:13;13.30;;;3.83;;
1887;SDS011;944;51.574;6.980;2023-04-03T22:59:10;7.40;;;3.93;;
1887;SDS011;944;51.574;6.980;2023-04-03T23:05:26;5.63;;;3.87;;
1887;SDS011;944;51.574;6.980;2023-04-03T23:07:53;7.00;;;3.63;;
1887;SDS011;944;51.574;6.980;2023-04-03T23:10:20;6.90;;;3.77;;
1887;SDS011;944;51.574;6.980;2023-04-03T23:13:05;8.77;;;3.90;;
1887;SDS011;944;51.574;6.980;2023-04-03T23:15:37;8.60;;;3.90;;
1887;SDS011;944;51.574;6.980;2023-04-03T23:18:47;13.20;;;3.90;;
1887;SDS011;944;51.574;6.980;2023-04-03T23:21:18;10.43;;;3.87;;
1887;SDS011;944;51.574;6.980;2023-04-03T23:24:10;6.63;;;3.60;;
1887;SDS011;944;51.574;6.980;2023-04-03T23:26:47;10.90;;;3.93;;
1887;SDS011;944;51.574;6.980;2023-04-03T23:29:17;7.23;;;3.90;;
1887;SDS011;944;51.574;6.980;2023-04-03T23:31:44;6.80;;;3.90;;
1887;SDS011;944;51.574;6.980;2023-04-03T23:34:14;5.70;;;3.57;;
1887;SDS011;944;51.574;6.980;2023-04-03T23:36:43;13.03;;;4.00;;
1887;SDS011;944;51.574;6.980;2023-04-03T23:39:12;8.27;;;3.67;;
1887;SDS011;944;51.574;6.980;2023-04-03T23:45:30;10.40;;;3.90;;
1887;SDS011;944;51.574;6.980;2023-04-03T23:48:00;10.90;;;3.80;;
1887;SDS011;944;51.574;6.980;2023-04-03T23:50:28;10.40;;;4.47;;
1887;SDS011;944;51.574;6.980;2023-04-03T23:53:09;8.90;;;3.97;;
1887;SDS011;944;51.574;6.980;2023-04-03T23:55:37;9.93;;;4.03;;
1887;SDS011;944;51.574;6.980;2023-04-03T23:58:10;9.50;;;4.20;;
